Time;durP1;ratioP1;P1;durP2;ratioP2;P2;SDS_P1;SDS_P2;PMS_P1;PMS_P2;Temp;Humidity;BMP_temperature;BMP_pressure;BME280_temperature;BME280_humidity;BME280_pressure;Samples;Min_cycle;Max_cycle;Signal;HPM_P1;HPM_P2
2022/07/10 00:00:53;;;;;;;;;;;16.20;99.90;;;;;;4592001;19;20261;-32
2022/07/10 00:02:24;;;;;;;;;;;16.20;99.90;;;;;;4591959;19;20340;-32
2022/07/10 00:03:55;;;;;;;;;;;16.20;99.90;;;;;;4591135;19;19918;-32
2022/07/10 00:05:26;;;;;;;;;;;16.20;99.90;;;;;;4591403;19;19934;-32
2022/07/10 00:06:58;;;;;;;;;;;16.20;99.90;;;;;;4591244;19;19919;-33
2022/07/10 00:08:29;;;;;;;;;;;16.20;99.90;;;;;;4590655;19;19982;-32
2022/07/10 00:10:00;;;;;;;;;;;16.20;99.90;;;;;;4589768;19;19946;-32
2022/07/10 00:11:32;;;;;;;;;;;16.20;99.90;;;;;;4590184;19;20343;-34
2022/07/10 00:13:04;;;;;;;;;;;16.20;99.90;;;;;;4590096;19;19913;-33
2022/07/10 00:14:35;;;;;;;;;;;16.20;99.90;;;;;;4592174;19;20340;-33
2022/07/10 00:16:06;;;;;;;;;;;16.20;99.90;;;;;;4591790;19;19922;-33
2022/07/10 00:17:39;;;;;;;;;;;16.20;99.90;;;;;;4591300;19;19982;-32
2022/07/10 00:19:10;;;;;;;;;;;16.20;99.90;;;;;;4591200;19;19941;-33
2022/07/10 00:20:41;;;;;;;;;;;16.20;99.90;;;;;;4591179;19;20258;-32
2022/07/10 00:22:13;;;;;;;;;;;16.20;99.90;;;;;;4590602;19;19946;-33
2022/07/10 00:23:44;;;;;;;;;;;16.20;99.90;;;;;;4589627;19;20607;-32
2022/07/10 00:25:15;;;;;;;;;;;16.20;99.90;;;;;;4589476;19;19922;-31
2022/07/10 00:26:47;;;;;;;;;;;16.20;99.90;;;;;;4589538;19;19920;-33
2022/07/10 00:28:19;;;;;;;;;;;16.20;99.90;;;;;;4589164;19;19915;-33
2022/07/10 00:29:50;;;;;;;;;;;16.20;99.90;;;;;;4592135;19;19936;-32
2022/07/10 00:31:21;;;;;;;;;;;16.20;99.90;;;;;;4589541;19;19926;-32
2022/07/10 00:32:53;;;;;;;;;;;16.20;99.90;;;;;;4589818;19;19915;-32
2022/07/10 00:34:25;;;;;;;;;;;16.20;99.90;;;;;;4589643;19;19946;-32
2022/07/10 00:35:56;;;;;;;;;;;16.10;99.90;;;;;;4589609;19;19929;-33
2022/07/10 00:37:27;;;;;;;;;;;16.10;99.90;;;;;;4588078;19;20350;-33
2022/07/10 00:38:58;;;;;;;;;;;16.10;99.90;;;;;;4589227;19;19922;-33
2022/07/10 00:40:30;;;;;;;;;;;16.10;99.90;;;;;;4591972;19;20288;-32
2022/07/10 00:42:11;;;;;;;;;;;16.10;99.90;;;;;;4591336;19;19918;-32
2022/07/10 00:43:56;;;;;;;;;;;16.10;99.90;;;;;;4592067;19;19982;-32
2022/07/10 00:45:28;;;;;;;;;;;16.10;99.90;;;;;;4589720;19;19941;-32
2022/07/10 00:46:59;;;;;;;;;;;16.10;99.90;;;;;;4590848;19;19978;-32
2022/07/10 00:48:30;;;;;;;;;;;16.10;99.90;;;;;;4589576;19;19923;-33
2022/07/10 00:50:01;;;;;;;;;;;16.30;99.90;;;;;;4589940;19;19926;-32
2022/07/10 00:51:33;;;;;;;;;;;16.60;99.90;;;;;;4589705;19;19950;-34
2022/07/10 00:53:04;;;;;;;;;;;16.90;99.90;;;;;;4588240;19;19921;-33
2022/07/10 00:54:35;;;;;;;;;;;17.20;99.90;;;;;;4589183;19;19918;-33
2022/07/10 00:56:07;;;;;;;;;;;17.40;99.90;;;;;;4591040;19;19925;-33
2022/07/10 00:57:38;;;;;;;;;;;17.60;99.90;;;;;;4590674;19;19922;-34
2022/07/10 00:59:09;;;;;;;;;;;17.70;99.90;;;;;;4590972;19;19929;-34
2022/07/10 01:00:40;;;;;;;;;;;17.90;99.90;;;;;;4589507;19;19915;-33
2022/07/10 01:02:11;;;;;;;;;;;18.00;99.90;;;;;;4589107;19;19994;-33
2022/07/10 01:03:43;;;;;;;;;;;18.10;99.90;;;;;;4590060;19;19915;-33
2022/07/10 01:05:14;;;;;;;;;;;18.20;99.90;;;;;;4591128;19;20266;-34
2022/07/10 01:06:45;;;;;;;;;;;18.30;99.90;;;;;;4590744;19;19988;-33
2022/07/10 01:08:17;;;;;;;;;;;18.40;99.90;;;;;;4589286;19;20353;-32
2022/07/10 01:09:49;;;;;;;;;;;18.50;99.90;;;;;;4589706;19;19968;-33
2022/07/10 01:11:20;;;;;;;;;;;18.50;99.90;;;;;;4593481;19;19915;-33
2022/07/10 01:12:51;;;;;;;;;;;18.60;99.90;;;;;;4595133;19;19925;-34
2022/07/10 01:14:22;;;;;;;;;;;18.60;99.90;;;;;;4595702;19;19967;-34
2022/07/10 01:15:53;;;;;;;;;;;18.70;99.90;;;;;;4594877;19;19942;-33
2022/07/10 01:17:24;;;;;;;;;;;18.70;99.90;;;;;;4594781;19;20355;-34
2022/07/10 01:18:55;;;;;;;;;;;18.70;99.90;;;;;;4595255;19;19982;-33
2022/07/10 01:20:33;;;;;;;;;;;18.80;99.90;;;;;;4592852;19;19986;-33
2022/07/10 01:22:04;;;;;;;;;;;18.80;99.90;;;;;;4595108;19;19907;-32
2022/07/10 01:23:34;;;;;;;;;;;18.90;99.90;;;;;;4595068;19;19925;-33
2022/07/10 01:25:06;;;;;;;;;;;18.90;99.90;;;;;;4591763;19;19993;-32
2022/07/10 01:26:38;;;;;;;;;;;19.00;99.90;;;;;;4595143;19;19917;-32
2022/07/10 01:28:09;;;;;;;;;;;19.00;99.90;;;;;;4596004;19;19918;-33
2022/07/10 01:29:40;;;;;;;;;;;19.00;99.90;;;;;;4594867;19;19978;-32
2022/07/10 01:31:10;;;;;;;;;;;19.00;99.90;;;;;;4595400;19;20340;-33
2022/07/10 01:32:42;;;;;;;;;;;19.10;99.90;;;;;;4595495;19;19914;-34
2022/07/10 01:34:13;;;;;;;;;;;19.10;99.90;;;;;;4594628;19;19917;-34
2022/07/10 01:35:43;;;;;;;;;;;19.10;99.90;;;;;;4594666;19;19914;-34
2022/07/10 01:37:14;;;;;;;;;;;19.10;99.90;;;;;;4595022;19;19918;-34
2022/07/10 01:38:45;;;;;;;;;;;19.10;99.90;;;;;;4594678;19;20351;-33
2022/07/10 01:40:16;;;;;;;;;;;19.20;99.90;;;;;;4594797;19;19934;-33
2022/07/10 01:41:47;;;;;;;;;;;19.20;99.90;;;;;;4595003;19;19922;-33
2022/07/10 01:43:18;;;;;;;;;;;19.20;99.90;;;;;;4593481;19;19928;-33
2022/07/10 01:44:49;;;;;;;;;;;19.20;99.90;;;;;;4594115;19;19966;-33
2022/07/10 01:46:20;;;;;;;;;;;19.30;99.90;;;;;;4594666;19;19915;-33
2022/07/10 01:47:52;;;;;;;;;;;19.30;99.90;;;;;;4594918;19;20261;-33
2022/07/10 01:49:23;;;;;;;;;;;19.30;99.90;;;;;;4594707;19;19929;-32
2022/07/10 01:50:54;;;;;;;;;;;19.30;99.90;;;;;;4593139;19;19978;-33
2022/07/10 01:52:25;;;;;;;;;;;19.40;99.90;;;;;;4594462;19;19918;-33
2022/07/10 01:53:56;;;;;;;;;;;19.30;99.90;;;;;;4593896;19;19919;-32
2022/07/10 01:55:27;;;;;;;;;;;19.30;99.90;;;;;;4594794;19;19974;-34
2022/07/10 01:56:58;;;;;;;;;;;19.40;99.90;;;;;;4593222;19;19935;-33
2022/07/10 01:58:29;;;;;;;;;;;19.40;99.90;;;;;;4594187;19;19915;-33
2022/07/10 02:00:00;;;;;;;;;;;19.40;99.90;;;;;;4593924;19;19919;-33
2022/07/10 02:01:31;;;;;;;;;;;19.40;99.90;;;;;;4595095;19;20311;-32
2022/07/10 02:04:52;;;;;;;;;;;19.40;99.90;;;;;;4593000;19;19925;-33
2022/07/10 02:06:23;;;;;;;;;;;19.40;99.90;;;;;;4593496;19;19915;-33
2022/07/10 02:07:54;;;;;;;;;;;19.40;99.90;;;;;;4595049;19;19919;-33
2022/07/10 02:09:25;;;;;;;;;;;19.40;99.90;;;;;;4592784;19;19967;-34
2022/07/10 02:10:56;;;;;;;;;;;19.40;99.90;;;;;;4592509;19;19918;-34
2022/07/10 02:12:27;;;;;;;;;;;19.40;99.90;;;;;;4594325;19;19923;-33
2022/07/10 02:13:57;;;;;;;;;;;19.50;99.90;;;;;;4594152;19;19906;-33
2022/07/10 02:15:29;;;;;;;;;;;19.50;99.90;;;;;;4593962;19;20258;-33
2022/07/10 02:17:00;;;;;;;;;;;19.50;99.90;;;;;;4594093;19;19929;-33
2022/07/10 02:18:32;;;;;;;;;;;19.50;99.90;;;;;;4594654;19;20244;-33
2022/07/10 02:20:03;;;;;;;;;;;19.50;99.90;;;;;;4594018;19;20271;-33
2022/07/10 02:21:34;;;;;;;;;;;19.50;99.90;;;;;;4593862;19;19915;-33
2022/07/10 02:23:06;;;;;;;;;;;19.50;99.90;;;;;;4592253;19;19917;-34
2022/07/10 02:24:37;;;;;;;;;;;19.50;99.90;;;;;;4593801;19;19915;-33
2022/07/10 02:26:08;;;;;;;;;;;19.50;99.90;;;;;;4594023;19;19921;-33
2022/07/10 02:27:39;;;;;;;;;;;19.50;99.90;;;;;;4593933;19;19914;-33
2022/07/10 02:29:10;;;;;;;;;;;19.50;99.90;;;;;;4593751;19;19949;-34
2022/07/10 02:30:42;;;;;;;;;;;19.50;99.90;;;;;;4593443;19;20384;-33
2022/07/10 02:32:12;;;;;;;;;;;19.50;99.90;;;;;;4593767;19;19915;-34
2022/07/10 02:33:44;;;;;;;;;;;19.50;99.90;;;;;;4593589;19;19926;-34
2022/07/10 02:35:15;;;;;;;;;;;19.60;99.90;;;;;;4593869;19;19922;-32
2022/07/10 02:36:46;;;;;;;;;;;19.60;99.90;;;;;;4593586;19;19922;-34
2022/07/10 02:38:16;;;;;;;;;;;19.60;99.90;;;;;;4593807;19;20008;-33
2022/07/10 02:39:48;;;;;;;;;;;19.60;99.90;;;;;;4593988;19;19939;-33
2022/07/10 02:41:19;;;;;;;;;;;19.60;99.90;;;;;;4593474;19;19915;-33
2022/07/10 02:42:50;;;;;;;;;;;19.60;99.90;;;;;;4593158;19;20360;-33
2022/07/10 02:44:21;;;;;;;;;;;19.60;99.90;;;;;;4593063;19;19922;-34
2022/07/10 02:45:52;;;;;;;;;;;19.60;99.90;;;;;;4592097;19;19911;-33
2022/07/10 02:47:23;;;;;;;;;;;19.60;99.90;;;;;;4592993;19;19932;-33
2022/07/10 02:48:54;;;;;;;;;;;19.60;99.90;;;;;;4593435;19;20252;-34
2022/07/10 02:50:25;;;;;;;;;;;19.60;99.90;;;;;;4592761;19;19926;-33
2022/07/10 02:51:56;;;;;;;;;;;19.60;99.90;;;;;;4593579;19;20351;-33
2022/07/10 02:53:27;;;;;;;;;;;19.60;99.90;;;;;;4593528;19;19970;-34
2022/07/10 02:54:58;;;;;;;;;;;19.60;99.90;;;;;;4591669;19;19983;-32
2022/07/10 02:56:29;;;;;;;;;;;19.60;99.90;;;;;;4593574;19;19914;-33
2022/07/10 02:58:00;;;;;;;;;;;19.60;99.90;;;;;;4593956;19;19978;-33
2022/07/10 02:59:31;;;;;;;;;;;19.60;99.90;;;;;;4592943;19;19942;-33
2022/07/10 03:01:02;;;;;;;;;;;19.70;99.90;;;;;;4593141;19;20263;-33
2022/07/10 03:02:33;;;;;;;;;;;19.60;99.90;;;;;;4593192;19;20344;-34
2022/07/10 03:04:04;;;;;;;;;;;19.60;99.90;;;;;;4593710;19;19919;-34
2022/07/10 03:05:35;;;;;;;;;;;19.60;99.90;;;;;;4593043;19;19919;-33
2022/07/10 03:07:06;;;;;;;;;;;19.70;99.90;;;;;;4592992;19;19919;-33
2022/07/10 03:08:37;;;;;;;;;;;19.70;99.90;;;;;;4592706;19;19922;-33
2022/07/10 03:10:08;;;;;;;;;;;19.70;99.90;;;;;;4592818;19;19922;-33
2022/07/10 03:11:39;;;;;;;;;;;19.70;99.90;;;;;;4593021;19;19911;-33
2022/07/10 03:13:10;;;;;;;;;;;19.60;99.90;;;;;;4593386;19;19926;-33
2022/07/10 03:14:41;;;;;;;;;;;19.70;99.90;;;;;;4593204;19;19931;-33
2022/07/10 03:16:12;;;;;;;;;;;19.60;99.90;;;;;;4591572;19;19911;-33
2022/07/10 03:17:44;;;;;;;;;;;19.60;99.90;;;;;;4592481;19;19918;-33
2022/07/10 03:19:15;;;;;;;;;;;19.70;99.90;;;;;;4593506;19;20222;-33
2022/07/10 03:20:46;;;;;;;;;;;19.70;99.90;;;;;;4593079;19;19929;-34
2022/07/10 03:22:17;;;;;;;;;;;19.70;99.90;;;;;;4592558;19;20030;-34
2022/07/10 03:23:48;;;;;;;;;;;19.70;99.90;;;;;;4592390;19;19919;-33
2022/07/10 03:25:19;;;;;;;;;;;19.70;99.90;;;;;;4592265;19;19918;-33
2022/07/10 03:26:49;;;;;;;;;;;19.70;99.90;;;;;;4592743;19;20261;-34
2022/07/10 03:28:21;;;;;;;;;;;19.70;99.90;;;;;;4592464;19;20335;-33
2022/07/10 03:29:52;;;;;;;;;;;19.70;99.90;;;;;;4592862;19;19911;-33
2022/07/10 03:31:23;;;;;;;;;;;19.70;99.90;;;;;;4593163;19;19915;-32
2022/07/10 03:32:54;;;;;;;;;;;19.70;99.90;;;;;;4592037;19;19918;-33
2022/07/10 03:34:25;;;;;;;;;;;19.80;99.90;;;;;;4589962;19;19922;-33
2022/07/10 03:35:56;;;;;;;;;;;19.70;99.90;;;;;;4592913;19;20343;-33
2022/07/10 03:37:27;;;;;;;;;;;19.80;99.90;;;;;;4593134;19;19919;-33
2022/07/10 03:38:58;;;;;;;;;;;19.80;99.90;;;;;;4592346;19;19966;-33
2022/07/10 03:40:29;;;;;;;;;;;19.80;99.90;;;;;;4592326;19;19915;-33
2022/07/10 03:42:00;;;;;;;;;;;19.80;99.90;;;;;;4592491;19;19919;-33
2022/07/10 03:43:30;;;;;;;;;;;19.80;99.90;;;;;;4592918;19;19915;-33
2022/07/10 03:45:01;;;;;;;;;;;19.80;99.90;;;;;;4591081;19;19915;-33
2022/07/10 03:46:33;;;;;;;;;;;19.80;99.90;;;;;;4592246;19;19915;-33
2022/07/10 03:48:04;;;;;;;;;;;19.80;99.90;;;;;;4592003;19;19929;-32
2022/07/10 03:49:35;;;;;;;;;;;19.80;99.90;;;;;;4591911;19;19919;-33
2022/07/10 03:51:06;;;;;;;;;;;19.80;99.90;;;;;;4591218;19;19922;-32
2022/07/10 03:52:37;;;;;;;;;;;19.80;99.90;;;;;;4592188;19;20273;-34
2022/07/10 03:54:08;;;;;;;;;;;19.80;99.90;;;;;;4592146;19;19911;-33
2022/07/10 03:55:39;;;;;;;;;;;19.80;99.90;;;;;;4592589;19;19930;-34
2022/07/10 03:59:00;;;;;;;;;;;19.80;99.90;;;;;;4591557;19;19929;-32
2022/07/10 04:00:32;;;;;;;;;;;19.90;99.90;;;;;;4592917;19;20331;-34
2022/07/10 04:02:03;;;;;;;;;;;19.80;99.90;;;;;;4591779;19;19931;-33
2022/07/10 04:03:34;;;;;;;;;;;19.90;99.90;;;;;;4591900;19;19914;-34
2022/07/10 04:05:06;;;;;;;;;;;19.90;99.90;;;;;;4591649;19;20257;-34
2022/07/10 04:06:39;;;;;;;;;;;19.90;99.90;;;;;;4591496;19;19911;-34
2022/07/10 04:08:10;;;;;;;;;;;19.90;99.90;;;;;;4591730;19;19926;-33
2022/07/10 04:09:41;;;;;;;;;;;19.90;99.90;;;;;;4592125;19;19926;-33
2022/07/10 04:11:13;;;;;;;;;;;19.90;99.90;;;;;;4588848;19;19932;-34
2022/07/10 04:12:44;;;;;;;;;;;19.90;99.90;;;;;;4590561;19;20587;-33
2022/07/10 04:14:15;;;;;;;;;;;19.90;99.90;;;;;;4589833;19;19925;-34
2022/07/10 04:15:46;;;;;;;;;;;19.90;99.90;;;;;;4592607;19;19915;-35
2022/07/10 04:17:17;;;;;;;;;;;20.00;99.90;;;;;;4592594;19;19914;-34
2022/07/10 04:18:49;;;;;;;;;;;19.90;99.90;;;;;;4592013;19;20568;-33
2022/07/10 04:20:20;;;;;;;;;;;19.90;99.90;;;;;;4591726;19;19919;-34
2022/07/10 04:21:51;;;;;;;;;;;20.00;99.90;;;;;;4591259;19;19979;-33
2022/07/10 04:23:22;;;;;;;;;;;19.90;99.90;;;;;;4591320;19;19926;-33
2022/07/10 04:24:53;;;;;;;;;;;20.00;99.90;;;;;;4588416;19;19919;-33
2022/07/10 04:26:24;;;;;;;;;;;20.00;99.90;;;;;;4589851;19;19911;-33
2022/07/10 04:27:55;;;;;;;;;;;20.00;99.90;;;;;;4589564;19;20491;-33
2022/07/10 04:29:27;;;;;;;;;;;20.00;99.90;;;;;;4589775;19;19918;-34
2022/07/10 04:30:57;;;;;;;;;;;20.00;99.90;;;;;;4591214;19;20351;-34
2022/07/10 04:32:28;;;;;;;;;;;20.00;99.90;;;;;;4591954;19;20273;-33
2022/07/10 04:33:59;;;;;;;;;;;20.00;99.90;;;;;;4591975;19;19915;-33
2022/07/10 04:35:30;;;;;;;;;;;20.10;99.90;;;;;;4591480;19;19918;-33
2022/07/10 04:37:01;;;;;;;;;;;20.10;99.90;;;;;;4590616;19;19936;-33
2022/07/10 04:38:32;;;;;;;;;;;20.10;99.90;;;;;;4589893;19;20325;-33
2022/07/10 04:40:04;;;;;;;;;;;20.10;99.90;;;;;;4590067;19;20261;-34
2022/07/10 04:41:36;;;;;;;;;;;20.10;99.90;;;;;;4589654;19;19919;-33
2022/07/10 04:43:07;;;;;;;;;;;20.10;99.90;;;;;;4589365;19;19914;-33
2022/07/10 04:44:38;;;;;;;;;;;20.10;99.90;;;;;;4591285;19;19930;-34
2022/07/10 04:46:10;;;;;;;;;;;20.10;99.90;;;;;;4591262;19;19914;-33
2022/07/10 04:47:41;;;;;;;;;;;20.10;99.90;;;;;;4591488;19;19919;-34
2022/07/10 04:49:12;;;;;;;;;;;20.10;99.90;;;;;;4590951;19;19919;-33
2022/07/10 04:50:43;;;;;;;;;;;20.10;99.90;;;;;;4588970;19;19930;-33
2022/07/10 04:52:15;;;;;;;;;;;20.10;99.90;;;;;;4589482;19;19919;-33
2022/07/10 04:53:46;;;;;;;;;;;20.10;99.90;;;;;;4589373;19;19922;-33
2022/07/10 04:55:17;;;;;;;;;;;20.10;99.90;;;;;;4590673;19;20333;-33
2022/07/10 04:56:48;;;;;;;;;;;20.10;99.90;;;;;;4590988;19;19934;-33
2022/07/10 04:58:19;;;;;;;;;;;20.10;99.90;;;;;;4590955;19;19922;-33
2022/07/10 04:59:50;;;;;;;;;;;20.10;99.90;;;;;;4589474;19;19976;-33
2022/07/10 05:01:21;;;;;;;;;;;20.10;99.90;;;;;;4589687;19;19918;-32
2022/07/10 05:02:52;;;;;;;;;;;20.10;99.90;;;;;;4587492;19;19922;-33
2022/07/10 05:04:23;;;;;;;;;;;20.10;99.90;;;;;;4588542;19;19919;-33
2022/07/10 05:05:54;;;;;;;;;;;20.10;99.90;;;;;;4588927;19;20631;-33
2022/07/10 05:07:25;;;;;;;;;;;20.10;99.90;;;;;;4588957;19;19937;-34
2022/07/10 05:08:56;;;;;;;;;;;20.10;99.90;;;;;;4591667;19;19934;-33
2022/07/10 05:10:27;;;;;;;;;;;20.10;99.90;;;;;;4590659;19;19917;-33
2022/07/10 05:11:58;;;;;;;;;;;20.10;99.90;;;;;;4590997;19;19926;-34
2022/07/10 05:13:30;;;;;;;;;;;20.10;99.90;;;;;;4590807;19;19919;-33
2022/07/10 05:15:01;;;;;;;;;;;20.10;99.90;;;;;;4590055;19;20372;-33
2022/07/10 05:16:32;;;;;;;;;;;20.10;99.90;;;;;;4589646;19;19915;-34
2022/07/10 05:18:04;;;;;;;;;;;20.10;99.90;;;;;;4588304;19;19925;-34
2022/07/10 05:19:34;;;;;;;;;;;20.10;99.90;;;;;;4587968;19;19921;-33
2022/07/10 05:21:06;;;;;;;;;;;20.10;99.90;;;;;;4588325;19;19926;-34
2022/07/10 05:22:37;;;;;;;;;;;20.10;99.90;;;;;;4591287;19;19922;-33
2022/07/10 05:24:08;;;;;;;;;;;20.10;99.90;;;;;;4590986;19;19929;-34
2022/07/10 05:25:39;;;;;;;;;;;20.10;99.90;;;;;;4590765;19;19918;-33
2022/07/10 05:27:11;;;;;;;;;;;20.10;99.90;;;;;;4590151;19;19914;-33
2022/07/10 05:28:41;;;;;;;;;;;20.10;99.90;;;;;;4589965;19;19928;-33
2022/07/10 05:30:13;;;;;;;;;;;20.10;99.90;;;;;;4589169;19;20321;-33
2022/07/10 05:31:44;;;;;;;;;;;20.10;99.90;;;;;;4589485;19;19933;-33
2022/07/10 05:33:15;;;;;;;;;;;20.10;99.90;;;;;;4588896;19;19966;-34
2022/07/10 05:34:46;;;;;;;;;;;20.10;99.90;;;;;;4586519;19;19921;-34
2022/07/10 05:36:17;;;;;;;;;;;20.10;99.90;;;;;;4589507;19;20270;-33
2022/07/10 05:37:48;;;;;;;;;;;20.10;99.90;;;;;;4588781;19;19925;-32
2022/07/10 05:39:19;;;;;;;;;;;20.10;99.90;;;;;;4588679;19;19987;-33
2022/07/10 05:40:50;;;;;;;;;;;20.20;99.90;;;;;;4588278;19;19919;-34
2022/07/10 05:42:21;;;;;;;;;;;20.20;99.90;;;;;;4588826;19;19974;-33
2022/07/10 05:43:52;;;;;;;;;;;20.20;99.90;;;;;;4585331;19;19926;-32
2022/07/10 05:45:23;;;;;;;;;;;20.20;99.90;;;;;;4587397;19;19925;-33
2022/07/10 05:46:54;;;;;;;;;;;20.20;99.90;;;;;;4589672;19;19923;-33
2022/07/10 05:48:25;;;;;;;;;;;20.30;99.90;;;;;;4588126;19;19918;-33
2022/07/10 05:49:56;;;;;;;;;;;20.00;99.90;;;;;;4589680;19;19907;-33
2022/07/10 05:51:27;;;;;;;;;;;19.80;99.90;;;;;;4588015;19;19922;-33
2022/07/10 05:52:58;;;;;;;;;;;19.70;99.90;;;;;;4589341;19;19926;-33
2022/07/10 05:54:29;;;;;;;;;;;19.60;99.90;;;;;;4588798;19;19927;-33
2022/07/10 05:56:01;;;;;;;;;;;19.50;99.90;;;;;;4589769;19;19911;-32
2022/07/10 05:57:32;;;;;;;;;;;19.50;99.90;;;;;;4590100;19;19919;-32
2022/07/10 05:59:03;;;;;;;;;;;19.50;99.90;;;;;;4595136;19;20346;-32
2022/07/10 06:00:34;;;;;;;;;;;19.40;99.90;;;;;;4594166;19;19918;-33
2022/07/10 06:02:05;;;;;;;;;;;19.40;99.90;;;;;;4593231;19;19926;-33
2022/07/10 06:03:36;;;;;;;;;;;19.30;99.90;;;;;;4593295;19;19925;-33
2022/07/10 06:05:07;;;;;;;;;;;19.30;99.90;;;;;;4593829;19;20246;-32
2022/07/10 06:06:39;;;;;;;;;;;19.30;99.90;;;;;;4594586;19;20491;-33
2022/07/10 06:08:12;;;;;;;;;;;19.30;99.90;;;;;;4592468;19;19926;-32
2022/07/10 06:09:43;;;;;;;;;;;19.30;99.90;;;;;;4594154;19;19990;-33
2022/07/10 06:11:15;;;;;;;;;;;19.30;99.90;;;;;;4592494;19;19925;-34
2022/07/10 06:12:47;;;;;;;;;;;19.30;99.90;;;;;;4593973;19;19919;-34
2022/07/10 06:14:18;;;;;;;;;;;19.30;99.90;;;;;;4594579;19;20257;-33
2022/07/10 06:15:48;;;;;;;;;;;19.30;99.90;;;;;;4594143;19;19914;-33
2022/07/10 06:17:19;;;;;;;;;;;19.40;99.90;;;;;;4593388;19;19918;-32
2022/07/10 06:18:51;;;;;;;;;;;19.60;99.90;;;;;;4591943;19;19965;-33
2022/07/10 06:20:22;;;;;;;;;;;19.80;99.90;;;;;;4591150;19;19915;-34
2022/07/10 06:23:42;;;;;;;;;;;19.90;99.90;;;;;;4591083;19;19911;-34
2022/07/10 06:25:14;;;;;;;;;;;20.00;99.90;;;;;;4589927;19;19922;-33
2022/07/10 06:26:45;;;;;;;;;;;20.10;99.90;;;;;;4593939;19;19941;-34
2022/07/10 06:28:16;;;;;;;;;;;20.20;99.90;;;;;;4593763;19;19930;-33
2022/07/10 06:29:48;;;;;;;;;;;20.30;99.90;;;;;;4591901;19;19918;-33
2022/07/10 06:31:19;;;;;;;;;;;20.30;99.90;;;;;;4591469;19;19933;-33
2022/07/10 06:32:50;;;;;;;;;;;20.30;99.90;;;;;;4592701;19;19910;-34
2022/07/10 06:34:21;;;;;;;;;;;20.30;99.90;;;;;;4591865;19;20328;-33
2022/07/10 06:35:52;;;;;;;;;;;20.30;99.90;;;;;;4591836;19;19923;-33
2022/07/10 06:37:23;;;;;;;;;;;20.40;99.90;;;;;;4588844;19;19945;-33
2022/07/10 06:38:54;;;;;;;;;;;20.60;99.90;;;;;;4589920;19;19923;-35
2022/07/10 06:40:25;;;;;;;;;;;20.60;99.90;;;;;;4593323;19;19919;-33
2022/07/10 06:41:56;;;;;;;;;;;20.70;99.90;;;;;;4593681;19;20336;-33
2022/07/10 06:43:27;;;;;;;;;;;20.70;99.90;;;;;;4592074;19;20480;-33
2022/07/10 06:44:58;;;;;;;;;;;20.60;99.90;;;;;;4590759;19;19918;-33
2022/07/10 06:46:29;;;;;;;;;;;20.60;99.90;;;;;;4590879;19;20286;-33
2022/07/10 06:47:59;;;;;;;;;;;20.60;99.90;;;;;;4592423;19;19919;-34
2022/07/10 06:49:31;;;;;;;;;;;20.50;99.90;;;;;;4594886;19;20319;-33
2022/07/10 06:51:02;;;;;;;;;;;20.50;99.90;;;;;;4592635;19;19919;-32
2022/07/10 06:52:33;;;;;;;;;;;20.70;99.90;;;;;;4593965;19;19915;-33
2022/07/10 06:54:03;;;;;;;;;;;20.60;99.90;;;;;;4594099;19;19917;-33
2022/07/10 06:55:35;;;;;;;;;;;20.60;99.90;;;;;;4595529;19;19915;-32
2022/07/10 06:57:21;;;;;;;;;;;20.50;99.90;;;;;;4593693;19;19919;-34
2022/07/10 06:58:51;;;;;;;;;;;20.60;99.90;;;;;;4593589;19;19915;-33
2022/07/10 07:00:22;;;;;;;;;;;20.60;99.90;;;;;;4592857;19;19914;-32
2022/07/10 07:01:54;;;;;;;;;;;20.60;99.90;;;;;;4593097;19;19970;-33
2022/07/10 07:03:24;;;;;;;;;;;20.70;99.90;;;;;;4592833;19;19962;-34
2022/07/10 07:04:55;;;;;;;;;;;20.70;99.90;;;;;;4593299;19;19929;-33
2022/07/10 07:06:26;;;;;;;;;;;20.60;99.90;;;;;;4591624;19;19934;-33
2022/07/10 07:07:58;;;;;;;;;;;20.50;99.90;;;;;;4591567;19;19922;-33
2022/07/10 07:09:28;;;;;;;;;;;20.40;99.90;;;;;;4588358;19;19911;-33
2022/07/10 07:10:59;;;;;;;;;;;20.40;99.90;;;;;;4589599;19;19942;-33
2022/07/10 07:12:30;;;;;;;;;;;20.40;99.90;;;;;;4591445;19;20002;-33
2022/07/10 07:14:01;;;;;;;;;;;20.40;99.90;;;;;;4592781;19;20694;-34
2022/07/10 07:15:37;;;;;;;;;;;20.40;99.90;;;;;;4591338;19;19977;-33
2022/07/10 07:17:11;;;;;;;;;;;20.40;99.90;;;;;;4591452;19;19930;-34
2022/07/10 07:18:49;;;;;;;;;;;20.50;99.90;;;;;;4590645;19;19934;-32
2022/07/10 07:23:59;;;;;;;;;;;20.50;99.90;;;;;;4592387;19;19925;-33
2022/07/10 07:25:30;;;;;;;;;;;20.50;99.90;;;;;;4591767;19;19929;-32
2022/07/10 07:27:01;;;;;;;;;;;20.60;99.90;;;;;;4591933;19;19935;-33
2022/07/10 07:28:32;;;;;;;;;;;20.60;99.90;;;;;;4591827;19;19919;-32
2022/07/10 07:30:06;;;;;;;;;;;20.70;99.90;;;;;;4590949;19;19915;-32
2022/07/10 07:31:38;;;;;;;;;;;20.80;99.90;;;;;;4592347;19;19919;-34
2022/07/10 07:33:08;;;;;;;;;;;20.90;99.90;;;;;;4592252;19;20244;-32
2022/07/10 07:34:39;;;;;;;;;;;20.90;99.90;;;;;;4592631;19;19917;-33
2022/07/10 07:36:10;;;;;;;;;;;21.00;99.90;;;;;;4590904;19;19975;-33
2022/07/10 07:37:42;;;;;;;;;;;21.10;99.90;;;;;;4591969;19;20263;-33
2022/07/10 07:39:13;;;;;;;;;;;21.10;99.90;;;;;;4593213;19;19938;-33
2022/07/10 07:40:44;;;;;;;;;;;21.10;99.90;;;;;;4592285;19;20306;-32
2022/07/10 07:42:15;;;;;;;;;;;21.30;99.90;;;;;;4590191;19;19926;-32
2022/07/10 07:43:47;;;;;;;;;;;21.50;99.90;;;;;;4590565;19;19937;-33
2022/07/10 07:45:18;;;;;;;;;;;21.40;99.90;;;;;;4588889;19;20361;-33
2022/07/10 07:46:49;;;;;;;;;;;21.50;99.90;;;;;;4591765;19;20149;-33
2022/07/10 07:48:19;;;;;;;;;;;21.60;99.90;;;;;;4591647;19;19922;-34
2022/07/10 07:49:51;;;;;;;;;;;21.60;99.90;;;;;;4591407;19;20313;-33
2022/07/10 07:51:22;;;;;;;;;;;21.70;99.90;;;;;;4589995;19;19914;-33
2022/07/10 07:52:53;;;;;;;;;;;21.60;99.90;;;;;;4591399;19;19935;-33
2022/07/10 07:54:24;;;;;;;;;;;21.70;99.90;;;;;;4590752;19;19925;-33
2022/07/10 07:55:56;;;;;;;;;;;22.00;99.90;;;;;;4591004;19;19926;-34
2022/07/10 07:57:27;;;;;;;;;;;22.20;99.90;;;;;;4591021;19;19914;-34
2022/07/10 07:58:58;;;;;;;;;;;22.00;99.90;;;;;;4591340;19;20462;-34
2022/07/10 08:00:29;;;;;;;;;;;21.80;99.90;;;;;;4591537;19;19943;-33
2022/07/10 08:02:01;;;;;;;;;;;21.70;99.90;;;;;;4592257;19;20253;-33
2022/07/10 08:03:32;;;;;;;;;;;21.60;99.90;;;;;;4591777;19;19993;-34
2022/07/10 08:05:04;;;;;;;;;;;21.70;99.90;;;;;;4591664;19;19925;-34
2022/07/10 08:06:36;;;;;;;;;;;21.80;99.90;;;;;;4591229;19;20254;-35
2022/07/10 08:08:09;;;;;;;;;;;21.80;99.90;;;;;;4590414;19;19927;-35
2022/07/10 08:09:40;;;;;;;;;;;21.70;99.90;;;;;;4586544;19;19930;-32
2022/07/10 08:11:11;;;;;;;;;;;21.70;99.90;;;;;;4590530;19;19925;-34
2022/07/10 08:12:42;;;;;;;;;;;21.70;99.90;;;;;;4591794;19;19927;-33
2022/07/10 08:14:14;;;;;;;;;;;21.60;99.90;;;;;;4592125;19;19931;-33
2022/07/10 08:15:45;;;;;;;;;;;21.70;99.90;;;;;;4591003;19;19978;-33
2022/07/10 08:17:15;;;;;;;;;;;21.80;99.90;;;;;;4589534;19;19919;-32
2022/07/10 08:18:46;;;;;;;;;;;21.70;99.90;;;;;;4591718;19;19986;-33
2022/07/10 08:20:18;;;;;;;;;;;21.90;99.90;;;;;;4587176;19;19922;-34
2022/07/10 08:21:48;;;;;;;;;;;21.80;99.90;;;;;;4587064;19;19925;-33
2022/07/10 08:23:19;;;;;;;;;;;21.70;99.90;;;;;;4587957;19;19944;-32
2022/07/10 08:24:50;;;;;;;;;;;21.70;99.90;;;;;;4586610;19;19922;-33
2022/07/10 08:26:21;;;;;;;;;;;21.90;99.90;;;;;;4587798;19;19926;-35
2022/07/10 08:27:52;;;;;;;;;;;22.00;99.90;;;;;;4591906;19;19914;-35
2022/07/10 08:29:23;;;;;;;;;;;21.90;99.90;;;;;;4589180;19;19914;-34
2022/07/10 08:30:54;;;;;;;;;;;21.70;99.90;;;;;;4589566;19;19915;-33
2022/07/10 08:32:27;;;;;;;;;;;21.70;99.90;;;;;;4590722;19;19922;-33
2022/07/10 08:33:58;;;;;;;;;;;21.60;99.90;;;;;;4589495;19;19986;-33
2022/07/10 08:35:29;;;;;;;;;;;21.60;99.90;;;;;;4589482;19;19957;-33
2022/07/10 08:37:00;;;;;;;;;;;21.50;99.90;;;;;;4589147;19;19911;-33
2022/07/10 08:38:31;;;;;;;;;;;21.40;99.90;;;;;;4588955;19;19949;-34
2022/07/10 08:40:02;;;;;;;;;;;21.50;99.90;;;;;;4585219;19;19922;-32
2022/07/10 08:41:33;;;;;;;;;;;21.40;99.90;;;;;;4589980;19;19918;-33
2022/07/10 08:43:05;;;;;;;;;;;21.40;99.90;;;;;;4590024;19;19915;-34
2022/07/10 08:44:37;;;;;;;;;;;21.40;99.90;;;;;;4587669;19;19918;-32
2022/07/10 08:46:08;;;;;;;;;;;21.40;99.90;;;;;;4590606;19;19922;-33
2022/07/10 08:47:41;;;;;;;;;;;21.40;99.90;;;;;;4590539;19;19929;-33
2022/07/10 08:49:13;;;;;;;;;;;21.40;99.90;;;;;;4589391;19;19933;-33
2022/07/10 08:50:45;;;;;;;;;;;21.30;99.90;;;;;;4590060;19;19923;-33
2022/07/10 08:52:22;;;;;;;;;;;21.40;99.90;;;;;;4589186;19;19915;-33
2022/07/10 08:53:52;;;;;;;;;;;21.40;99.90;;;;;;4590489;19;20240;-33
2022/07/10 08:55:24;;;;;;;;;;;21.40;99.90;;;;;;4588042;19;19962;-33
2022/07/10 08:57:02;;;;;;;;;;;21.40;99.90;;;;;;4588535;19;19919;-35
2022/07/10 08:58:33;;;;;;;;;;;21.40;99.90;;;;;;4591369;19;20330;-33
2022/07/10 09:00:04;;;;;;;;;;;21.40;99.90;;;;;;4590067;19;19923;-32